首页
METAR-TAF:

METAR-TAF

机场 :

切尔维亚, 意大利

纬度: 44-13N, 经度: 012-18E, 海拔: 6米

当前天气观测

该预报发布于42分钟前的20:55 UTC
风速8节,风向
温度 9°C
湿度 71%
气压 1004 hPa
能见度10公里或以上
多云层高于5000英尺

METAR: LIPC 272055Z 18008KT 9999 BKN050 09/04 Q1004 RMK BKN VIS MIN 9999 WIND THR11 19008KT WIND THR29 20009KT BLU

时间: 22:37 (21:37 UTC)

预报

该预报发布于1小时和37分钟前的20:00 UTC
预报有效从27日的 21点(UTC)到 28日的 06点(UTC)
风速15节,风向西
能见度10公里或以上
散云层高于4000英尺
短暂存在
从 27日的 22点(UTC)到 28日的 06点(UTC)
风速20节,风向西,有时为30节阵风

TAF: LIPC 272000Z 2721/2806 27015KT 9999 SCT040 TEMPO 2722/2806 28020G30KT

超过4000个机场的气象观测和天气预报(METAR&TAF报告)。

可查询的气象台以黄色和红色小点在地图上表示。

将鼠标移到小点上方,可查看气象台名称。

然后点击查看天气观测和预报。

如需切换地图:点击带黑十字的绿色按钮放大地图;点击带横线的绿色按钮缩小地图;或者点击绿色箭头查看邻近地区的地图。


METAR-TAF: